Time;durP1;ratioP1;P1;durP2;ratioP2;P2;SDS_P1;SDS_P2;PMS_P1;PMS_P2;Temp;Humidity;BMP_temperature;BMP_pressure;BME280_temperature;BME280_humidity;BME280_pressure;Samples;Min_cycle;Max_cycle;Signal;HPM_P1;HPM_P2
2021/09/10 00:00:08;;;;;;;;;;;;;;;;;;5116514;28;19934;-73
2021/09/10 00:02:34;;;;;;;;;;;;;;;;;;5116622;28;19930;-73
2021/09/10 00:05:01;;;;;;;;;;;;;;;;;;5117005;28;19924;-74
2021/09/10 00:07:27;;;;;;;;;;;;;;;;;;5116280;28;19924;-74
2021/09/10 00:09:53;;;;;;;;;;;;;;;;;;5116593;28;20030;-73
2021/09/10 00:12:19;;;;;;;;;;;;;;;;;;5116556;28;19923;-73
2021/09/10 00:14:46;;;;;;;;;;;;;;;;;;5116464;28;20438;-73
2021/09/10 00:17:12;;;;;;;;;;;;;;;;;;5116097;28;19924;-73
2021/09/10 00:19:38;;;;;;;;;;;;;;;;;;5116501;28;19935;-74
2021/09/10 00:22:05;;;;;;;;;;;;;;;;;;5116111;28;20294;-73
2021/09/10 00:24:31;;;;;;;;;;;;;;;;;;5116091;28;19924;-73
2021/09/10 00:26:57;;;;;;;;;;;;;;;;;;5116278;28;19924;-73
2021/09/10 00:29:24;;;;;;;;;;;;;;;;;;5116068;28;19923;-73
2021/09/10 00:31:50;;;;;;;;;;;;;;;;;;5116102;28;20394;-73
2021/09/10 00:34:16;;;;;;;;;;;;;;;;;;5115756;28;19923;-73
2021/09/10 00:36:44;;;;;;;;;;;;;;;;;;5116003;28;19924;-74
2021/09/10 00:39:10;;;;;;;;;;;;;;;;;;5115845;28;19923;-73
2021/09/10 00:41:37;;;;;;;;;;;;;;;;;;5115840;28;19924;-73
2021/09/10 00:44:03;;;;;;;;;;;;;;;;;;5116243;28;19928;-73
2021/09/10 00:46:30;;;;;;;;;;;;;;;;;;5116150;28;19981;-73
2021/09/10 00:48:56;;;;;;;;;;;;;;;;;;5115813;28;20382;-73
2021/09/10 00:51:22;;;;;;;;;;;;;;;;;;5114275;28;20297;-73
2021/09/10 00:53:49;;;;;;;;;;;;;;;;;;5115487;28;19928;-73
2021/09/10 00:56:15;;;;;;;;;;;;;;;;;;5115745;28;19924;-74
2021/09/10 00:58:41;;;;;;;;;;;;;;;;;;5115840;28;19931;-73
2021/09/10 01:01:08;;;;;;;;;;;;;;;;;;5115189;28;19927;-73
2021/09/10 01:03:34;;;;;;;;;;;;;;;;;;5115448;28;19927;-73
2021/09/10 01:06:00;;;;;;;;;;;;;;;;;;5115758;28;19924;-73
2021/09/10 01:08:27;;;;;;;;;;;;;;;;;;5115189;28;20365;-73
2021/09/10 01:10:53;;;;;;;;;;;;;;;;;;5115616;28;19939;-74
2021/09/10 01:13:19;;;;;;;;;;;;;;;;;;5115310;28;19950;-73
2021/09/10 01:15:45;;;;;;;;;;;;;;;;;;5115305;28;19934;-73
2021/09/10 01:18:12;;;;;;;;;;;;;;;;;;5115206;28;19930;-73
2021/09/10 01:20:38;;;;;;;;;;;;;;;;;;5115221;28;20296;-73
2021/09/10 01:23:04;;;;;;;;;;;;;;;;;;5114946;28;19923;-73
2021/09/10 01:25:31;;;;;;;;;;;;;;;;;;5114761;28;19924;-73
2021/09/10 01:27:57;;;;;;;;;;;;;;;;;;5115073;28;20335;-73
2021/09/10 01:30:23;;;;;;;;;;;;;;;;;;5114763;28;19931;-73
2021/09/10 01:32:49;;;;;;;;;;;;;;;;;;5115275;28;19934;-73
2021/09/10 01:35:16;;;;;;;;;;;;;;;;;;5114571;28;20467;-73
2021/09/10 01:37:42;;;;;;;;;;;;;;;;;;5114766;28;19937;-73
2021/09/10 01:40:08;;;;;;;;;;;;;;;;;;5114854;28;19924;-73
2021/09/10 01:42:35;;;;;;;;;;;;;;;;;;5115153;28;19924;-73
2021/09/10 01:45:01;;;;;;;;;;;;;;;;;;5114805;28;19924;-73
2021/09/10 01:47:27;;;;;;;;;;;;;;;;;;5114662;28;19923;-73
2021/09/10 01:49:54;;;;;;;;;;;;;;;;;;5114813;28;19924;-73
2021/09/10 01:52:20;;;;;;;;;;;;;;;;;;5114280;28;19934;-73
2021/09/10 01:54:46;;;;;;;;;;;;;;;;;;5114474;28;20332;-73
2021/09/10 01:57:13;;;;;;;;;;;;;;;;;;5114214;28;19931;-73
2021/09/10 01:59:43;;;;;;;;;;;;;;;;;;5114583;28;19931;-73
2021/09/10 02:02:09;;;;;;;;;;;;;;;;;;5114049;28;20397;-73
2021/09/10 02:04:35;;;;;;;;;;;;;;;;;;5114305;28;19924;-73
2021/09/10 02:07:02;;;;;;;;;;;;;;;;;;5114289;28;19976;-73
2021/09/10 02:09:28;;;;;;;;;;;;;;;;;;5114276;28;19930;-74
2021/09/10 02:11:54;;;;;;;;;;;;;;;;;;5114202;28;19931;-73
2021/09/10 02:14:21;;;;;;;;;;;;;;;;;;5114113;28;19934;-74
2021/09/10 02:16:47;;;;;;;;;;;;;;;;;;5114435;28;20036;-73
2021/09/10 02:19:13;;;;;;;;;;;;;;;;;;5113635;28;19924;-73
2021/09/10 02:21:39;;;;;;;;;;;;;;;;;;5114195;28;19923;-73
2021/09/10 02:24:06;;;;;;;;;;;;;;;;;;5113704;28;20387;-73
2021/09/10 02:26:32;;;;;;;;;;;;;;;;;;5113757;28;19930;-73
2021/09/10 02:28:58;;;;;;;;;;;;;;;;;;5113788;28;19924;-73
2021/09/10 02:31:25;;;;;;;;;;;;;;;;;;5113861;28;19934;-73
2021/09/10 02:33:51;;;;;;;;;;;;;;;;;;5113679;28;20321;-73
2021/09/10 02:36:17;;;;;;;;;;;;;;;;;;5113424;28;19924;-73
2021/09/10 02:38:44;;;;;;;;;;;;;;;;;;5113753;28;19924;-74
2021/09/10 02:41:10;;;;;;;;;;;;;;;;;;5113675;28;19930;-73
2021/09/10 02:43:36;;;;;;;;;;;;;;;;;;5113437;28;19923;-74
2021/09/10 02:46:03;;;;;;;;;;;;;;;;;;5113713;28;19924;-73
2021/09/10 02:48:29;;;;;;;;;;;;;;;;;;5113506;28;19946;-73
2021/09/10 02:50:55;;;;;;;;;;;;;;;;;;5113377;28;19928;-73
2021/09/10 02:53:21;;;;;;;;;;;;;;;;;;5113419;28;19928;-73
2021/09/10 02:55:48;;;;;;;;;;;;;;;;;;5113571;28;19927;-73
2021/09/10 02:58:14;;;;;;;;;;;;;;;;;;5113261;28;19923;-73
2021/09/10 03:00:40;;;;;;;;;;;;;;;;;;5113179;28;19931;-74
2021/09/10 03:03:07;;;;;;;;;;;;;;;;;;5113265;28;19931;-74
2021/09/10 03:05:33;;;;;;;;;;;;;;;;;;5113225;28;20396;-73
2021/09/10 03:07:59;;;;;;;;;;;;;;;;;;5113125;28;19931;-73
2021/09/10 03:10:26;;;;;;;;;;;;;;;;;;5113113;28;19930;-74
2021/09/10 03:12:52;;;;;;;;;;;;;;;;;;5113102;28;19932;-73
2021/09/10 03:15:18;;;;;;;;;;;;;;;;;;5112533;28;19924;-73
2021/09/10 03:17:44;;;;;;;;;;;;;;;;;;5113256;28;19924;-73
2021/09/10 03:20:11;;;;;;;;;;;;;;;;;;5112586;28;20416;-73
2021/09/10 03:22:37;;;;;;;;;;;;;;;;;;5112906;28;19930;-73
2021/09/10 03:25:03;;;;;;;;;;;;;;;;;;5112922;28;19930;-73
2021/09/10 03:27:30;;;;;;;;;;;;;;;;;;5112726;28;20386;-73
2021/09/10 03:29:56;;;;;;;;;;;;;;;;;;5112737;28;19949;-73
2021/09/10 03:32:22;;;;;;;;;;;;;;;;;;5112864;28;19951;-73
2021/09/10 03:34:49;;;;;;;;;;;;;;;;;;5112758;28;19931;-73
2021/09/10 03:37:15;;;;;;;;;;;;;;;;;;5112668;28;19938;-73
2021/09/10 03:39:42;;;;;;;;;;;;;;;;;;5112675;28;20019;-73
2021/09/10 03:42:08;;;;;;;;;;;;;;;;;;5112840;28;19963;-73
2021/09/10 03:44:34;;;;;;;;;;;;;;;;;;5113204;28;20402;-73
2021/09/10 03:47:04;;;;;;;;;;;;;;;;;;5112579;28;19924;-73
2021/09/10 03:49:30;;;;;;;;;;;;;;;;;;5113145;28;19924;-73
2021/09/10 03:51:57;;;;;;;;;;;;;;;;;;5112603;28;19924;-73
2021/09/10 03:54:23;;;;;;;;;;;;;;;;;;5112316;28;19930;-73
2021/09/10 03:56:49;;;;;;;;;;;;;;;;;;5112882;28;19924;-73
2021/09/10 03:59:16;;;;;;;;;;;;;;;;;;5112528;28;19947;-73
2021/09/10 04:01:42;;;;;;;;;;;;;;;;;;5112487;28;19928;-73
2021/09/10 04:04:08;;;;;;;;;;;;;;;;;;5112207;28;19923;-73
2021/09/10 04:06:35;;;;;;;;;;;;;;;;;;5112740;28;19924;-73
2021/09/10 04:09:01;;;;;;;;;;;;;;;;;;5112356;28;20373;-73
2021/09/10 04:11:27;;;;;;;;;;;;;;;;;;5112153;28;19923;-73
2021/09/10 04:13:54;;;;;;;;;;;;;;;;;;5112708;28;19924;-73
2021/09/10 04:16:20;;;;;;;;;;;;;;;;;;5112445;28;19946;-73
2021/09/10 04:18:46;;;;;;;;;;;;;;;;;;5112201;28;19924;-73
2021/09/10 04:21:12;;;;;;;;;;;;;;;;;;5112377;28;19934;-73
2021/09/10 04:23:39;;;;;;;;;;;;;;;;;;5112564;28;19946;-73
2021/09/10 04:26:05;;;;;;;;;;;;;;;;;;5113357;28;19924;-73
2021/09/10 04:28:31;;;;;;;;;;;;;;;;;;5116462;28;19924;-73
2021/09/10 04:30:58;;;;;;;;;;;;;;;;;;5116006;28;20275;-73
2021/09/10 04:33:24;;;;;;;;;;;;;;;;;;5115795;28;19923;-73
2021/09/10 04:35:50;;;;;;;;;;;;;;;;;;5116221;28;19924;-73
2021/09/10 04:38:16;;;;;;;;;;;;;;;;;;5115715;28;20374;-73
2021/09/10 04:40:43;;;;;;;;;;;;;;;;;;5115722;28;19927;-73
2021/09/10 04:43:10;;;;;;;;;;;;;;;;;;5115822;28;19930;-73
2021/09/10 04:45:36;;;;;;;;;;;;;;;;;;5116173;28;19963;-73
2021/09/10 04:48:02;;;;;;;;;;;;;;;;;;5115829;28;20394;-73
2021/09/10 04:50:29;;;;;;;;;;;;;;;;;;5115386;28;19930;-74
2021/09/10 04:52:55;;;;;;;;;;;;;;;;;;5115945;28;19924;-82
2021/09/10 04:55:21;;;;;;;;;;;;;;;;;;5115786;28;19924;-79
2021/09/10 04:57:48;;;;;;;;;;;;;;;;;;5115623;28;19930;-80
2021/09/10 05:00:14;;;;;;;;;;;;;;;;;;5115337;28;19931;-80
2021/09/10 05:02:41;;;;;;;;;;;;;;;;;;5115732;28;19931;-79
2021/09/10 05:05:07;;;;;;;;;;;;;;;;;;5115468;28;20014;-78
2021/09/10 05:07:33;;;;;;;;;;;;;;;;;;5115368;28;20271;-78
2021/09/10 05:10:00;;;;;;;;;;;;;;;;;;5115396;28;20010;-78
2021/09/10 05:12:26;;;;;;;;;;;;;;;;;;5115113;28;19923;-78
2021/09/10 05:14:52;;;;;;;;;;;;;;;;;;5115414;28;19928;-78
2021/09/10 05:17:19;;;;;;;;;;;;;;;;;;5115016;28;19923;-78
2021/09/10 05:19:45;;;;;;;;;;;;;;;;;;5115423;28;19924;-78
2021/09/10 05:22:11;;;;;;;;;;;;;;;;;;5114954;28;19930;-78
2021/09/10 05:24:39;;;;;;;;;;;;;;;;;;5114828;28;20397;-78
2021/09/10 05:27:05;;;;;;;;;;;;;;;;;;5115042;28;19924;-78
2021/09/10 05:29:31;;;;;;;;;;;;;;;;;;5115370;28;19923;-78
2021/09/10 05:31:58;;;;;;;;;;;;;;;;;;5114939;28;20386;-78
2021/09/10 05:34:24;;;;;;;;;;;;;;;;;;5115015;28;19931;-78
2021/09/10 05:36:50;;;;;;;;;;;;;;;;;;5115069;28;19924;-76
2021/09/10 05:39:17;;;;;;;;;;;;;;;;;;5113952;28;20285;-79
2021/09/10 05:41:43;;;;;;;;;;;;;;;;;;5114826;28;19934;-79
2021/09/10 05:44:09;;;;;;;;;;;;;;;;;;5114850;28;19977;-79
2021/09/10 05:46:35;;;;;;;;;;;;;;;;;;5114651;28;20408;-77
2021/09/10 05:49:03;;;;;;;;;;;;;;;;;;5114676;28;19924;-78
2021/09/10 05:51:30;;;;;;;;;;;;;;;;;;5114724;28;19976;-78
2021/09/10 05:53:56;;;;;;;;;;;;;;;;;;5114641;28;19931;-78
2021/09/10 05:56:22;;;;;;;;;;;;;;;;;;5114319;28;19928;-79
2021/09/10 05:58:49;;;;;;;;;;;;;;;;;;5114640;28;19924;-79
2021/09/10 06:01:15;;;;;;;;;;;;;;;;;;5113910;28;20285;-78
2021/09/10 06:03:41;;;;;;;;;;;;;;;;;;5114063;28;19924;-78
2021/09/10 06:06:08;;;;;;;;;;;;;;;;;;5114254;28;19931;-77
2021/09/10 06:08:34;;;;;;;;;;;;;;;;;;5114130;28;20298;-77
2021/09/10 06:11:00;;;;;;;;;;;;;;;;;;5114045;28;19924;-78
2021/09/10 06:13:26;;;;;;;;;;;;;;;;;;5114060;28;19923;-78
2021/09/10 06:15:53;;;;;;;;;;;;;;;;;;5114541;28;19930;-78
2021/09/10 06:18:19;;;;;;;;;;;;;;;;;;5113732;28;19931;-77
2021/09/10 06:20:45;;;;;;;;;;;;;;;;;;5113924;28;19924;-76
2021/09/10 06:23:12;;;;;;;;;;;;;;;;;;5114084;28;19923;-77
2021/09/10 06:25:38;;;;;;;;;;;;;;;;;;5113747;28;22174;-77
2021/09/10 06:28:04;;;;;;;;;;;;;;;;;;5113731;28;19934;-78
2021/09/10 06:30:31;;;;;;;;;;;;;;;;;;5114258;28;19931;-78
2021/09/10 06:32:57;;;;;;;;;;;;;;;;;;5114201;28;19923;-78
2021/09/10 06:35:23;;;;;;;;;;;;;;;;;;5113948;28;19946;-77
2021/09/10 06:37:50;;;;;;;;;;;;;;;;;;5113989;28;19923;-77
2021/09/10 06:40:16;;;;;;;;;;;;;;;;;;5113426;28;19938;-78
2021/09/10 06:42:43;;;;;;;;;;;;;;;;;;5113631;28;19930;-78
2021/09/10 06:45:09;;;;;;;;;;;;;;;;;;5113310;28;20271;-78
2021/09/10 06:47:35;;;;;;;;;;;;;;;;;;5113696;28;19930;-79
2021/09/10 06:50:07;;;;;;;;;;;;;;;;;;5113015;28;19931;-78
2021/09/10 06:52:33;;;;;;;;;;;;;;;;;;5113595;28;19923;-78
2021/09/10 06:54:59;;;;;;;;;;;;;;;;;;5113779;28;19924;-78
2021/09/10 06:57:28;;;;;;;;;;;;;;;;;;5113301;28;19934;-78
2021/09/10 06:59:54;;;;;;;;;;;;;;;;;;5113632;28;19931;-79
2021/09/10 07:02:20;;;;;;;;;;;;;;;;;;5113090;28;19924;-79
2021/09/10 07:04:46;;;;;;;;;;;;;;;;;;5113564;28;19924;-78
2021/09/10 07:07:13;;;;;;;;;;;;;;;;;;5113075;28;20382;-77
2021/09/10 07:09:39;;;;;;;;;;;;;;;;;;5113289;28;19924;-78
2021/09/10 07:12:07;;;;;;;;;;;;;;;;;;5112741;28;19973;-78
2021/09/10 07:14:33;;;;;;;;;;;;;;;;;;5113408;28;19924;-78
2021/09/10 07:16:59;;;;;;;;;;;;;;;;;;5113385;28;19946;-77
2021/09/10 07:19:25;;;;;;;;;;;;;;;;;;5112697;28;19930;-78
2021/09/10 07:21:52;;;;;;;;;;;;;;;;;;5112994;28;19924;-77
2021/09/10 07:24:19;;;;;;;;;;;;;;;;;;5112874;28;19924;-78
2021/09/10 07:26:45;;;;;;;;;;;;;;;;;;5113326;28;19931;-77
2021/09/10 07:29:12;;;;;;;;;;;;;;;;;;5113086;28;19945;-77
2021/09/10 07:31:38;;;;;;;;;;;;;;;;;;5112986;28;20398;-77
2021/09/10 07:34:05;;;;;;;;;;;;;;;;;;5112832;28;20021;-77
2021/09/10 07:36:31;;;;;;;;;;;;;;;;;;5112863;28;19924;-77
2021/09/10 07:38:58;;;;;;;;;;;;;;;;;;5112907;28;19924;-78
2021/09/10 07:41:24;;;;;;;;;;;;;;;;;;5112819;28;20067;-74
2021/09/10 07:43:50;;;;;;;;;;;;;;;;;;5112724;28;20290;-75
2021/09/10 07:46:16;;;;;;;;;;;;;;;;;;5112845;28;19923;-75
2021/09/10 07:48:43;;;;;;;;;;;;;;;;;;5113111;28;19923;-77
2021/09/10 07:51:09;;;;;;;;;;;;;;;;;;5112451;28;20393;-76
2021/09/10 07:53:35;;;;;;;;;;;;;;;;;;5112875;28;20022;-77
2021/09/10 07:56:02;;;;;;;;;;;;;;;;;;5113039;28;19924;-76
2021/09/10 07:58:28;;;;;;;;;;;;;;;;;;5112799;28;19924;-76
2021/09/10 08:00:54;;;;;;;;;;;;;;;;;;5113859;28;19934;-74
2021/09/10 08:03:21;;;;;;;;;;;;;;;;;;5116862;28;19931;-75
2021/09/10 08:05:47;;;;;;;;;;;;;;;;;;5116844;28;19947;-74
2021/09/10 08:08:13;;;;;;;;;;;;;;;;;;5116461;28;19924;-77
2021/09/10 08:10:39;;;;;;;;;;;;;;;;;;5116851;28;19931;-77
2021/09/10 08:13:06;;;;;;;;;;;;;;;;;;5116279;28;20325;-76
2021/09/10 08:15:32;;;;;;;;;;;;;;;;;;5116590;28;19923;-77
2021/09/10 08:17:58;;;;;;;;;;;;;;;;;;5116842;28;19931;-77
2021/09/10 08:20:25;;;;;;;;;;;;;;;;;;5116260;28;19932;-76
2021/09/10 08:22:51;;;;;;;;;;;;;;;;;;5116400;28;19924;-76
2021/09/10 08:25:19;;;;;;;;;;;;;;;;;;5116088;28;19924;-77
2021/09/10 08:27:45;;;;;;;;;;;;;;;;;;5116658;28;19982;-75
2021/09/10 08:30:11;;;;;;;;;;;;;;;;;;5115917;28;19924;-75
2021/09/10 08:32:38;;;;;;;;;;;;;;;;;;5116398;28;19931;-75
2021/09/10 08:35:04;;;;;;;;;;;;;;;;;;5116535;28;20022;-75
2021/09/10 08:37:31;;;;;;;;;;;;;;;;;;5116031;28;20336;-75
2021/09/10 08:39:58;;;;;;;;;;;;;;;;;;5116024;28;19974;-76
2021/09/10 08:42:24;;;;;;;;;;;;;;;;;;5116139;28;19924;-76
2021/09/10 08:44:50;;;;;;;;;;;;;;;;;;5115905;28;20400;-76
2021/09/10 08:47:17;;;;;;;;;;;;;;;;;;5115600;28;19923;-75
2021/09/10 08:49:45;;;;;;;;;;;;;;;;;;5116192;28;19931;-75
2021/09/10 08:52:11;;;;;;;;;;;;;;;;;;5115636;28;20400;-76
2021/09/10 08:54:38;;;;;;;;;;;;;;;;;;5115830;28;20381;-76
2021/09/10 08:57:04;;;;;;;;;;;;;;;;;;5115774;28;19968;-75
2021/09/10 08:59:30;;;;;;;;;;;;;;;;;;5115823;28;19934;-75
2021/09/10 09:01:56;;;;;;;;;;;;;;;;;;5115926;28;20277;-76
2021/09/10 09:04:23;;;;;;;;;;;;;;;;;;5115382;28;19924;-76
2021/09/10 09:06:49;;;;;;;;;;;;;;;;;;5115419;28;19930;-75
2021/09/10 09:09:15;;;;;;;;;;;;;;;;;;5115512;28;19934;-76
2021/09/10 09:11:42;;;;;;;;;;;;;;;;;;5115130;28;19924;-75
2021/09/10 09:14:08;;;;;;;;;;;;;;;;;;5114808;28;19923;-75
2021/09/10 09:16:38;;;;;;;;;;;;;;;;;;5114625;28;20294;-75
2021/09/10 09:19:04;;;;;;;;;;;;;;;;;;5114309;28;19924;-76
2021/09/10 09:21:30;;;;;;;;;;;;;;;;;;5114131;28;19950;-74
2021/09/10 09:23:57;;;;;;;;;;;;;;;;;;5114769;28;19924;-74
2021/09/10 09:26:23;;;;;;;;;;;;;;;;;;5114824;28;19923;-76
2021/09/10 09:28:49;;;;;;;;;;;;;;;;;;5115433;28;19924;-76
2021/09/10 09:31:16;;;;;;;;;;;;;;;;;;5114899;28;19927;-76
2021/09/10 09:33:44;;;;;;;;;;;;;;;;;;5114882;28;19924;-77
2021/09/10 09:36:10;;;;;;;;;;;;;;;;;;5114785;28;19924;-74
2021/09/10 09:38:37;;;;;;;;;;;;;;;;;;5115255;28;19930;-75
2021/09/10 09:41:03;;;;;;;;;;;;;;;;;;5115175;28;20274;-76
2021/09/10 09:43:29;;;;;;;;;;;;;;;;;;5116539;28;19931;-75
2021/09/10 09:45:56;;;;;;;;;;;;;;;;;;5114983;28;19928;-75
2021/09/10 09:48:22;;;;;;;;;;;;;;;;;;5114824;28;19924;-75
2021/09/10 09:50:49;;;;;;;;;;;;;;;;;;5114762;28;20370;-75
2021/09/10 09:53:15;;;;;;;;;;;;;;;;;;5114636;28;19969;-75
2021/09/10 09:55:41;;;;;;;;;;;;;;;;;;5114555;28;19923;-75
2021/09/10 09:58:08;;;;;;;;;;;;;;;;;;5114671;28;19930;-79
2021/09/10 10:00:34;;;;;;;;;;;;;;;;;;5114764;28;19935;-75
2021/09/10 10:03:00;;;;;;;;;;;;;;;;;;5114647;28;19948;-75
2021/09/10 10:05:27;;;;;;;;;;;;;;;;;;5114095;28;20298;-74
2021/09/10 10:07:53;;;;;;;;;;;;;;;;;;5114353;28;19931;-75
2021/09/10 10:10:19;;;;;;;;;;;;;;;;;;5114405;28;19932;-75
2021/09/10 10:12:46;;;;;;;;;;;;;;;;;;5114298;28;20416;-76
2021/09/10 10:15:12;;;;;;;;;;;;;;;;;;5113946;28;19931;-76
2021/09/10 10:17:38;;;;;;;;;;;;;;;;;;5114316;28;19930;-75
2021/09/10 10:20:05;;;;;;;;;;;;;;;;;;5114012;28;20275;-75
2021/09/10 10:22:31;;;;;;;;;;;;;;;;;;5113982;28;19940;-75
2021/09/10 10:24:57;;;;;;;;;;;;;;;;;;5113864;28;20022;-76
2021/09/10 10:27:24;;;;;;;;;;;;;;;;;;5114005;28;20296;-75
2021/09/10 10:29:50;;;;;;;;;;;;;;;;;;5113947;28;19930;-75
2021/09/10 10:32:16;;;;;;;;;;;;;;;;;;5114018;28;19938;-76
2021/09/10 10:34:42;;;;;;;;;;;;;;;;;;5114201;28;20297;-76
2021/09/10 10:37:09;;;;;;;;;;;;;;;;;;5113523;28;19924;-76
2021/09/10 10:39:35;;;;;;;;;;;;;;;;;;5114024;28;19924;-76
2021/09/10 10:42:01;;;;;;;;;;;;;;;;;;5113854;28;20370;-76
2021/09/10 10:44:28;;;;;;;;;;;;;;;;;;5113324;28;19924;-76
2021/09/10 10:46:54;;;;;;;;;;;;;;;;;;5114097;28;19923;-76
2021/09/10 10:49:20;;;;;;;;;;;;;;;;;;5113235;28;19924;-76
2021/09/10 10:51:47;;;;;;;;;;;;;;;;;;5113943;28;19934;-76
2021/09/10 10:54:13;;;;;;;;;;;;;;;;;;5113607;28;20010;-76
2021/09/10 10:56:40;;;;;;;;;;;;;;;;;;5113481;28;20412;-74
2021/09/10 10:59:07;;;;;;;;;;;;;;;;;;5113438;28;19950;-75
2021/09/10 11:01:33;;;;;;;;;;;;;;;;;;5113244;28;19938;-75
2021/09/10 11:03:59;;;;;;;;;;;;;;;;;;5113430;28;19924;-75
2021/09/10 11:06:26;;;;;;;;;;;;;;;;;;5113231;28;19928;-75
2021/09/10 11:08:52;;;;;;;;;;;;;;;;;;5113097;28;19923;-76
2021/09/10 11:11:18;;;;;;;;;;;;;;;;;;5113247;28;19923;-75
2021/09/10 11:13:45;;;;;;;;;;;;;;;;;;5113348;28;19924;-75
2021/09/10 11:16:11;;;;;;;;;;;;;;;;;;5112603;28;19924;-75
2021/09/10 11:18:38;;;;;;;;;;;;;;;;;;5113264;28;19930;-75
2021/09/10 11:21:04;;;;;;;;;;;;;;;;;;5113058;28;19947;-75
2021/09/10 11:23:31;;;;;;;;;;;;;;;;;;5112880;28;19942;-75
2021/09/10 11:25:58;;;;;;;;;;;;;;;;;;5112714;28;20006;-75
2021/09/10 11:28:25;;;;;;;;;;;;;;;;;;5112884;28;19924;-75
2021/09/10 11:30:51;;;;;;;;;;;;;;;;;;5112720;28;19923;-75
2021/09/10 11:33:17;;;;;;;;;;;;;;;;;;5112709;28;19928;-75
2021/09/10 11:35:44;;;;;;;;;;;;;;;;;;5112260;28;20301;-74
2021/09/10 11:38:10;;;;;;;;;;;;;;;;;;5112534;28;19923;-75
2021/09/10 11:40:36;;;;;;;;;;;;;;;;;;5112850;28;19931;-75
2021/09/10 11:43:03;;;;;;;;;;;;;;;;;;5113079;28;19923;-75
2021/09/10 11:45:31;;;;;;;;;;;;;;;;;;5112698;28;19924;-75
2021/09/10 11:47:57;;;;;;;;;;;;;;;;;;5112646;28;19924;-75
2021/09/10 11:50:23;;;;;;;;;;;;;;;;;;5112696;28;19947;-75
2021/09/10 11:52:49;;;;;;;;;;;;;;;;;;5112634;28;19924;-75
2021/09/10 11:55:16;;;;;;;;;;;;;;;;;;5112647;28;19924;-75
2021/09/10 11:57:42;;;;;;;;;;;;;;;;;;5112653;28;19924;-75
2021/09/10 12:00:08;;;;;;;;;;;;;;;;;;5112549;28;19923;-76
2021/09/10 12:02:35;;;;;;;;;;;;;;;;;;5112763;28;19930;-75
2021/09/10 12:05:03;;;;;;;;;;;;;;;;;;5112762;28;19924;-75
2021/09/10 12:07:29;;;;;;;;;;;;;;;;;;5112143;28;20382;-75
2021/09/10 12:09:55;;;;;;;;;;;;;;;;;;5112528;28;19930;-75
2021/09/10 12:12:22;;;;;;;;;;;;;;;;;;5112475;28;19924;-76
2021/09/10 12:14:48;;;;;;;;;;;;;;;;;;5112757;28;19927;-75
2021/09/10 12:17:14;;;;;;;;;;;;;;;;;;5112370;28;20056;-75
2021/09/10 12:19:41;;;;;;;;;;;;;;;;;;5112272;28;20377;-74
2021/09/10 12:22:07;;;;;;;;;;;;;;;;;;5112284;28;19927;-75
2021/09/10 12:24:33;;;;;;;;;;;;;;;;;;5112324;28;19924;-75
2021/09/10 12:27:01;;;;;;;;;;;;;;;;;;5112681;28;19931;-75
2021/09/10 12:29:28;;;;;;;;;;;;;;;;;;5112543;28;19928;-75
2021/09/10 12:31:54;;;;;;;;;;;;;;;;;;5112684;28;20039;-75
2021/09/10 12:34:21;;;;;;;;;;;;;;;;;;5112028;28;19924;-75
2021/09/10 12:36:48;;;;;;;;;;;;;;;;;;5112339;28;19927;-75
2021/09/10 12:39:14;;;;;;;;;;;;;;;;;;5112402;28;19924;-75
2021/09/10 12:41:40;;;;;;;;;;;;;;;;;;5112388;28;20385;-75
2021/09/10 12:44:09;;;;;;;;;;;;;;;;;;5112046;28;19930;-75
2021/09/10 12:46:35;;;;;;;;;;;;;;;;;;5112679;28;19927;-75
2021/09/10 12:49:01;;;;;;;;;;;;;;;;;;5115316;28;19946;-75
2021/09/10 12:51:28;;;;;;;;;;;;;;;;;;5115491;28;19927;-74
2021/09/10 12:53:54;;;;;;;;;;;;;;;;;;5116270;28;19923;-75
2021/09/10 12:56:20;;;;;;;;;;;;;;;;;;5115527;28;20514;-75
2021/09/10 12:58:47;;;;;;;;;;;;;;;;;;5115888;28;19930;-75
2021/09/10 13:01:15;;;;;;;;;;;;;;;;;;5115594;28;19924;-75
2021/09/10 13:03:41;;;;;;;;;;;;;;;;;;5115680;28;20336;-75
2021/09/10 13:06:07;;;;;;;;;;;;;;;;;;5115405;28;20421;-75
2021/09/10 13:08:34;;;;;;;;;;;;;;;;;;5115597;28;19924;-75
2021/09/10 13:11:00;;;;;;;;;;;;;;;;;;5115770;28;19923;-75
2021/09/10 13:13:28;;;;;;;;;;;;;;;;;;5115288;28;19930;-76
2021/09/10 13:15:54;;;;;;;;;;;;;;;;;;5115507;28;19968;-75
2021/09/10 13:18:20;;;;;;;;;;;;;;;;;;5115307;28;20420;-75
2021/09/10 13:20:47;;;;;;;;;;;;;;;;;;5115338;28;19931;-75
2021/09/10 13:23:13;;;;;;;;;;;;;;;;;;5115238;28;19924;-76
2021/09/10 13:25:39;;;;;;;;;;;;;;;;;;5114925;28;19934;-75
2021/09/10 13:28:06;;;;;;;;;;;;;;;;;;5114815;28;20018;-76
2021/09/10 13:30:32;;;;;;;;;;;;;;;;;;5115037;28;19924;-76
2021/09/10 13:32:58;;;;;;;;;;;;;;;;;;5115225;28;19928;-75
2021/09/10 13:35:25;;;;;;;;;;;;;;;;;;5114751;28;19962;-76
2021/09/10 13:37:51;;;;;;;;;;;;;;;;;;5114996;28;20301;-75
2021/09/10 13:40:17;;;;;;;;;;;;;;;;;;5114676;28;19930;-76
2021/09/10 13:42:44;;;;;;;;;;;;;;;;;;5115181;28;19930;-76
2021/09/10 13:45:10;;;;;;;;;;;;;;;;;;5115048;28;19924;-76
2021/09/10 13:47:36;;;;;;;;;;;;;;;;;;5114885;28;20394;-75
2021/09/10 13:50:03;;;;;;;;;;;;;;;;;;5114936;28;19923;-75
2021/09/10 13:52:29;;;;;;;;;;;;;;;;;;5114799;28;20011;-75
2021/09/10 13:54:55;;;;;;;;;;;;;;;;;;5115007;28;19923;-75
2021/09/10 13:57:23;;;;;;;;;;;;;;;;;;5114791;28;19947;-76
2021/09/10 13:59:49;;;;;;;;;;;;;;;;;;5114437;28;19935;-74
2021/09/10 14:02:15;;;;;;;;;;;;;;;;;;5114574;28;19923;-74
2021/09/10 14:04:41;;;;;;;;;;;;;;;;;;5114530;28;20386;-74
2021/09/10 14:07:08;;;;;;;;;;;;;;;;;;5114210;28;19924;-75
2021/09/10 14:09:34;;;;;;;;;;;;;;;;;;5114751;28;19931;-74
2021/09/10 14:12:00;;;;;;;;;;;;;;;;;;5114765;28;19923;-75
2021/09/10 14:14:27;;;;;;;;;;;;;;;;;;5114649;28;20281;-74
2021/09/10 14:16:54;;;;;;;;;;;;;;;;;;5114345;28;19928;-75
2021/09/10 14:19:21;;;;;;;;;;;;;;;;;;5114138;28;19930;-74
2021/09/10 14:21:48;;;;;;;;;;;;;;;;;;5114085;28;19931;-75
2021/09/10 14:24:14;;;;;;;;;;;;;;;;;;5114093;28;19923;-76
2021/09/10 14:26:40;;;;;;;;;;;;;;;;;;5114098;28;19923;-76
2021/09/10 14:29:07;;;;;;;;;;;;;;;;;;5113902;28;19931;-74
2021/09/10 14:31:33;;;;;;;;;;;;;;;;;;5113856;28;20293;-74
2021/09/10 14:34:02;;;;;;;;;;;;;;;;;;5114138;28;19935;-74
2021/09/10 14:36:28;;;;;;;;;;;;;;;;;;5114089;28;19924;-74
2021/09/10 14:38:54;;;;;;;;;;;;;;;;;;5113776;28;20345;-69
2021/09/10 14:41:21;;;;;;;;;;;;;;;;;;5113447;28;19924;-75
2021/09/10 14:43:48;;;;;;;;;;;;;;;;;;5113630;28;19923;-75
2021/09/10 14:46:14;;;;;;;;;;;;;;;;;;5113641;28;19924;-75
2021/09/10 14:48:42;;;;;;;;;;;;;;;;;;5113832;28;19924;-75
2021/09/10 14:51:08;;;;;;;;;;;;;;;;;;5113328;28;20014;-75
2021/09/10 14:53:35;;;;;;;;;;;;;;;;;;5113397;28;19976;-75
2021/09/10 14:56:01;;;;;;;;;;;;;;;;;;5113507;28;19924;-75
2021/09/10 14:58:29;;;;;;;;;;;;;;;;;;5113443;28;19930;-75
2021/09/10 15:00:58;;;;;;;;;;;;;;;;;;5113427;28;19924;-75
2021/09/10 15:03:24;;;;;;;;;;;;;;;;;;5113369;28;20015;-75
2021/09/10 15:05:50;;;;;;;;;;;;;;;;;;5113359;28;20545;-75
2021/09/10 15:08:17;;;;;;;;;;;;;;;;;;5112940;28;19924;-74
2021/09/10 15:10:43;;;;;;;;;;;;;;;;;;5112796;28;19923;-73
2021/09/10 15:13:09;;;;;;;;;;;;;;;;;;5112885;28;20401;-74
2021/09/10 15:15:36;;;;;;;;;;;;;;;;;;5113229;28;19924;-73
2021/09/10 15:18:02;;;;;;;;;;;;;;;;;;5113584;28;19930;-74
2021/09/10 15:20:28;;;;;;;;;;;;;;;;;;5112667;28;20420;-74
2021/09/10 15:22:54;;;;;;;;;;;;;;;;;;5112980;28;19924;-74
2021/09/10 15:25:21;;;;;;;;;;;;;;;;;;5112803;28;19923;-74
2021/09/10 15:27:47;;;;;;;;;;;;;;;;;;5113203;28;19946;-74
2021/09/10 15:30:13;;;;;;;;;;;;;;;;;;5112719;28;19924;-74
2021/09/10 15:32:40;;;;;;;;;;;;;;;;;;5113165;28;19935;-74
2021/09/10 15:35:06;;;;;;;;;;;;;;;;;;5113006;28;19924;-74
2021/09/10 15:37:32;;;;;;;;;;;;;;;;;;5112781;28;20381;-74
2021/09/10 15:39:59;;;;;;;;;;;;;;;;;;5112834;28;19924;-74
2021/09/10 15:42:25;;;;;;;;;;;;;;;;;;5112780;28;19923;-74
2021/09/10 15:44:51;;;;;;;;;;;;;;;;;;5113094;28;20281;-74
2021/09/10 15:47:17;;;;;;;;;;;;;;;;;;5112842;28;20334;-74
2021/09/10 15:49:44;;;;;;;;;;;;;;;;;;5112909;28;19923;-74
2021/09/10 15:52:10;;;;;;;;;;;;;;;;;;5112874;28;19927;-74
2021/09/10 15:54:37;;;;;;;;;;;;;;;;;;5112757;28;20491;-75
2021/09/10 15:57:03;;;;;;;;;;;;;;;;;;5113187;28;19927;-74
2021/09/10 15:59:30;;;;;;;;;;;;;;;;;;5112435;28;19928;-74
2021/09/10 16:01:56;;;;;;;;;;;;;;;;;;5112804;28;19930;-73
2021/09/10 16:04:22;;;;;;;;;;;;;;;;;;5112851;28;19931;-75
2021/09/10 16:06:49;;;;;;;;;;;;;;;;;;5112620;28;19930;-74
2021/09/10 16:09:15;;;;;;;;;;;;;;;;;;5112578;28;19924;-74
2021/09/10 16:11:41;;;;;;;;;;;;;;;;;;5112690;28;19923;-74
2021/09/10 16:14:08;;;;;;;;;;;;;;;;;;5112222;28;20321;-74
2021/09/10 16:16:34;;;;;;;;;;;;;;;;;;5112505;28;20472;-74
2021/09/10 16:19:00;;;;;;;;;;;;;;;;;;5112799;28;19928;-74
2021/09/10 16:21:26;;;;;;;;;;;;;;;;;;5112903;28;19924;-75
2021/09/10 16:23:53;;;;;;;;;;;;;;;;;;5116342;28;20047;-75
2021/09/10 16:26:19;;;;;;;;;;;;;;;;;;5115740;28;19924;-74
2021/09/10 16:28:45;;;;;;;;;;;;;;;;;;5116202;28;20373;-75
2021/09/10 16:31:12;;;;;;;;;;;;;;;;;;5116237;28;19931;-74
2021/09/10 16:33:38;;;;;;;;;;;;;;;;;;5116174;28;20266;-74
2021/09/10 16:36:05;;;;;;;;;;;;;;;;;;5116401;28;19968;-74
2021/09/10 16:38:31;;;;;;;;;;;;;;;;;;5116013;28;20409;-75